THY7FS LTFM-LTAC
Flight info
| Callsign | THY7FS |
|---|---|
| Flight time | N/A |
| Altitude | 27000 |
| Route | VICEN T380 ASMAP L333 LATGA |
| Aircraft | A321/M-SDE3FGHIRWY/LB1 |
Departure
| Time | 2026-05-05 00:11 |
|---|---|
| Airport | İstanbul Airport (LTFM) |
Arrival
| Time | N/A |
|---|---|
| Airport | Esenboğa International Airport (LTAC) |
| Time | Latitude | Longitude | Altitude | Speed | Heading |
|---|---|---|---|---|---|
| 2026-05-04 23:47 | 41.26600 | 28.74997 | 334 ft | 0 kts | 287° |
| 2026-05-05 00:03 | 41.26595 | 28.75019 | 329 ft | 4 kts | 290° |
| 2026-05-05 00:04 | 41.26585 | 28.75052 | 329 ft | 4 kts | 296° |
| 2026-05-05 00:04 | 41.26572 | 28.75083 | 329 ft | 4 kts | 309° |
| 2026-05-05 00:04 | 41.26553 | 28.75105 | 330 ft | 4 kts | 343° |
| 2026-05-05 00:04 | 41.26538 | 28.75107 | 330 ft | 1 kts | 17° |
| 2026-05-05 00:05 | 41.26535 | 28.75106 | 330 ft | 0 kts | 17° |
| 2026-05-05 00:07 | 41.26559 | 28.75116 | 332 ft | 9 kts | 17° |
| 2026-05-05 00:07 | 41.26624 | 28.75184 | 334 ft | 13 kts | 76° |
| 2026-05-05 00:08 | 41.26627 | 28.75308 | 334 ft | 14 kts | 89° |
| 2026-05-05 00:08 | 41.26591 | 28.75393 | 333 ft | 10 kts | 179° |
| 2026-05-05 00:08 | 41.26519 | 28.75390 | 332 ft | 11 kts | 182° |
| 2026-05-05 00:08 | 41.26451 | 28.75391 | 333 ft | 8 kts | 163° |
| 2026-05-05 00:09 | 41.26423 | 28.75450 | 332 ft | 8 kts | 94° |
| 2026-05-05 00:09 | 41.26424 | 28.75536 | 333 ft | 10 kts | 89° |
| 2026-05-05 00:09 | 41.26424 | 28.75631 | 331 ft | 10 kts | 89° |
| 2026-05-05 00:09 | 41.26445 | 28.75663 | 331 ft | 3 kts | 15° |
| 2026-05-05 00:10 | 41.26474 | 28.75663 | 331 ft | 5 kts | 358° |
| 2026-05-05 00:10 | 41.26484 | 28.75662 | 333 ft | 0 kts | 359° |
| 2026-05-05 00:10 | 41.26485 | 28.75662 | 333 ft | 1 kts | 359° |
| 2026-05-05 00:10 | 41.26555 | 28.75660 | 331 ft | 32 kts | 358° |
| 2026-05-05 00:11 | 41.27039 | 28.75651 | 331 ft | 105 kts | 359° |
| 2026-05-05 00:11 | 41.27984 | 28.75629 | 336 ft | 163 kts | 356° |
| 2026-05-05 00:11 | 41.29198 | 28.75616 | 740 ft | 179 kts | 1° |
| 2026-05-05 00:11 | 41.30436 | 28.76021 | 1424 ft | 189 kts | 24° |
| 2026-05-05 00:12 | 41.31551 | 28.76977 | 2230 ft | 190 kts | 32° |
| 2026-05-05 00:12 | 41.32620 | 28.78022 | 2894 ft | 195 kts | 35° |
| 2026-05-05 00:12 | 41.33711 | 28.79175 | 3521 ft | 205 kts | 37° |
| 2026-05-05 00:12 | 41.34958 | 28.80289 | 3893 ft | 227 kts | 28° |
| 2026-05-05 00:13 | 41.36364 | 28.81324 | 4464 ft | 238 kts | 27° |
| 2026-05-05 00:13 | 41.38290 | 28.84147 | 5811 ft | 256 kts | 72° |
| 2026-05-05 00:13 | 41.38451 | 28.89013 | 7441 ft | 266 kts | 83° |
| 2026-05-05 00:13 | 41.37006 | 28.93635 | 8887 ft | 301 kts | 138° |
| 2026-05-05 00:14 | 41.32849 | 28.94899 | 10304 ft | 321 kts | 177° |
| 2026-05-05 00:14 | 41.28077 | 28.94925 | 10715 ft | 365 kts | 179° |
| 2026-05-05 00:14 | 41.22732 | 28.94870 | 11220 ft | 398 kts | 175° |
| 2026-05-05 00:14 | 41.17696 | 28.97550 | 12463 ft | 392 kts | 135° |
| 2026-05-05 00:15 | 41.14689 | 29.03414 | 13790 ft | 387 kts | 111° |
| 2026-05-05 00:15 | 41.12302 | 29.09888 | 14993 ft | 394 kts | 112° |
| 2026-05-05 00:15 | 41.09840 | 29.16450 | 16164 ft | 400 kts | 112° |
| 2026-05-05 00:15 | 41.07335 | 29.23123 | 17356 ft | 407 kts | 112° |
| 2026-05-05 00:16 | 41.04800 | 29.29890 | 18476 ft | 414 kts | 112° |
| 2026-05-05 00:16 | 41.02213 | 29.36783 | 19407 ft | 420 kts | 111° |
| 2026-05-05 00:16 | 40.99032 | 29.45254 | 20494 ft | 428 kts | 111° |
| 2026-05-05 00:16 | 40.93614 | 29.59589 | 22216 ft | 440 kts | 110° |
| 2026-05-05 00:17 | 40.88055 | 29.74255 | 23843 ft | 452 kts | 110° |
| 2026-05-05 00:17 | 40.82331 | 29.89223 | 25209 ft | 461 kts | 110° |
| 2026-05-05 00:17 | 40.76459 | 30.04483 | 26516 ft | 471 kts | 110° |
| 2026-05-05 00:17 | 40.70577 | 30.19722 | 26862 ft | 463 kts | 110° |
| 2026-05-05 00:18 | 40.66128 | 30.35275 | 27077 ft | 435 kts | 88° |
| 2026-05-05 00:18 | 40.65263 | 30.46478 | 26889 ft | 439 kts | 89° |
| 2026-05-05 00:18 | 40.64564 | 30.54463 | 26989 ft | 439 kts | 89° |
| 2026-05-05 00:18 | 40.63873 | 30.62426 | 27008 ft | 438 kts | 89° |
| 2026-05-05 00:19 | 40.63176 | 30.70373 | 27019 ft | 439 kts | 91° |
| 2026-05-05 00:19 | 40.61647 | 30.78269 | 27026 ft | 446 kts | 97° |
| 2026-05-05 00:19 | 40.59983 | 30.86124 | 27027 ft | 445 kts | 97° |
| 2026-05-05 00:19 | 40.58322 | 30.93963 | 27025 ft | 444 kts | 97° |
| 2026-05-05 00:20 | 40.56654 | 31.01803 | 27034 ft | 445 kts | 97° |
| 2026-05-05 00:20 | 40.54980 | 31.09633 | 27041 ft | 445 kts | 97° |
| 2026-05-05 00:20 | 40.53297 | 31.17455 | 27028 ft | 444 kts | 98° |
| 2026-05-05 00:20 | 40.51616 | 31.25248 | 27025 ft | 444 kts | 97° |
| 2026-05-05 00:21 | 40.49925 | 31.33068 | 26666 ft | 444 kts | 98° |
| 2026-05-05 00:21 | 40.48232 | 31.40878 | 26170 ft | 444 kts | 98° |
| 2026-05-05 00:21 | 40.46533 | 31.48681 | 25684 ft | 445 kts | 98° |
| 2026-05-05 00:21 | 40.44824 | 31.56492 | 25202 ft | 446 kts | 99° |
| 2026-05-05 00:22 | 40.43108 | 31.64323 | 24721 ft | 446 kts | 99° |
| 2026-05-05 00:22 | 40.41399 | 31.72106 | 24245 ft | 443 kts | 100° |
| 2026-05-05 00:22 | 40.39689 | 31.79837 | 23782 ft | 440 kts | 101° |
| 2026-05-05 00:22 | 40.38560 | 31.84933 | 23461 ft | 438 kts | 101° |
| 2026-05-05 00:23 | 40.36321 | 31.94998 | 22678 ft | 415 kts | 102° |
| 2026-05-05 00:23 | 40.35260 | 31.99738 | 22224 ft | 405 kts | 102° |
| 2026-05-05 00:23 | 40.33837 | 32.06801 | 21362 ft | 395 kts | 95° |
| 2026-05-05 00:23 | 40.33694 | 32.13904 | 20432 ft | 383 kts | 81° |
| 2026-05-05 00:24 | 40.33947 | 32.16233 | 20091 ft | 381 kts | 79° |
| 2026-05-05 00:24 | 40.34353 | 32.19655 | 19594 ft | 379 kts | 79° |
| 2026-05-05 00:24 | 40.34739 | 32.23017 | 19101 ft | 376 kts | 80° |
| 2026-05-05 00:24 | 40.35126 | 32.26444 | 18601 ft | 374 kts | 80° |
| 2026-05-05 00:25 | 40.35498 | 32.29765 | 18098 ft | 372 kts | 81° |
| 2026-05-05 00:25 | 40.35699 | 32.33140 | 17550 ft | 371 kts | 89° |
| 2026-05-05 00:25 | 40.35507 | 32.36502 | 17015 ft | 369 kts | 97° |
| 2026-05-05 00:25 | 40.34951 | 32.39779 | 16470 ft | 368 kts | 103° |
| 2026-05-05 00:26 | 40.34307 | 32.43012 | 15934 ft | 366 kts | 103° |
| 2026-05-05 00:26 | 40.33669 | 32.46233 | 15391 ft | 363 kts | 102° |
| 2026-05-05 00:26 | 40.33456 | 32.47312 | 15208 ft | 362 kts | 102° |
| 2026-05-05 00:26 | 40.33043 | 32.49417 | 14849 ft | 361 kts | 102° |
| 2026-05-05 00:27 | 40.32421 | 32.52593 | 14321 ft | 359 kts | 102° |
| 2026-05-05 00:27 | 40.31632 | 32.55692 | 13836 ft | 358 kts | 111° |
| 2026-05-05 00:27 | 40.30446 | 32.58539 | 13397 ft | 354 kts | 122° |
| 2026-05-05 00:27 | 40.28906 | 32.61026 | 13008 ft | 349 kts | 133° |
| 2026-05-05 00:28 | 40.27062 | 32.63062 | 12608 ft | 345 kts | 144° |
| 2026-05-05 00:28 | 40.24975 | 32.64553 | 12218 ft | 341 kts | 156° |
| 2026-05-05 00:28 | 40.22708 | 32.65420 | 11829 ft | 337 kts | 169° |
| 2026-05-05 00:28 | 40.20414 | 32.65622 | 11454 ft | 333 kts | 182° |
| 2026-05-05 00:29 | 40.18136 | 32.65192 | 11112 ft | 329 kts | 193° |
| 2026-05-05 00:29 | 40.15934 | 32.64474 | 10732 ft | 325 kts | 193° |
| 2026-05-05 00:29 | 40.13783 | 32.63780 | 10342 ft | 309 kts | 193° |
| 2026-05-05 00:29 | 40.11751 | 32.63136 | 9981 ft | 293 kts | 191° |
| 2026-05-05 00:30 | 40.09764 | 32.63071 | 9594 ft | 282 kts | 166° |
| 2026-05-05 00:30 | 40.08032 | 32.64092 | 9195 ft | 270 kts | 139° |
| 2026-05-05 00:30 | 40.06844 | 32.65917 | 8791 ft | 264 kts | 115° |
| 2026-05-05 00:30 | 40.06280 | 32.68177 | 8391 ft | 262 kts | 101° |
| 2026-05-05 00:31 | 40.05861 | 32.70484 | 8098 ft | 258 kts | 101° |
| 2026-05-05 00:31 | 40.05272 | 32.72664 | 7794 ft | 253 kts | 114° |
| 2026-05-05 00:31 | 40.04326 | 32.74564 | 7541 ft | 247 kts | 124° |
| 2026-05-05 00:31 | 40.03320 | 32.76346 | 7227 ft | 239 kts | 123° |
| 2026-05-05 00:32 | 40.02361 | 32.78051 | 6970 ft | 228 kts | 123° |
| 2026-05-05 00:32 | 40.01453 | 32.79670 | 6768 ft | 217 kts | 123° |
| 2026-05-05 00:32 | 40.00569 | 32.81254 | 6592 ft | 215 kts | 121° |
| 2026-05-05 00:32 | 39.99938 | 32.82992 | 6333 ft | 209 kts | 101° |
| 2026-05-05 00:33 | 39.99802 | 32.84850 | 6171 ft | 202 kts | 82° |
| 2026-05-05 00:33 | 40.00110 | 32.86562 | 6001 ft | 190 kts | 64° |
| 2026-05-05 00:33 | 40.00778 | 32.88011 | 5804 ft | 185 kts | 47° |
| 2026-05-05 00:33 | 40.01707 | 32.89102 | 5575 ft | 175 kts | 33° |
| 2026-05-05 00:34 | 40.02674 | 32.90019 | 5346 ft | 169 kts | 34° |
| 2026-05-05 00:34 | 40.03590 | 32.90889 | 5151 ft | 158 kts | 34° |
| 2026-05-05 00:34 | 40.04470 | 32.91725 | 4926 ft | 155 kts | 34° |
| 2026-05-05 00:34 | 40.05328 | 32.92539 | 4713 ft | 155 kts | 34° |
| 2026-05-05 00:35 | 40.06199 | 32.93366 | 4465 ft | 155 kts | 34° |
| 2026-05-05 00:35 | 40.07074 | 32.94197 | 4224 ft | 156 kts | 34° |
| 2026-05-05 00:35 | 40.07950 | 32.95030 | 3989 ft | 156 kts | 35° |
| 2026-05-05 00:35 | 40.08831 | 32.95865 | 3777 ft | 157 kts | 35° |
| 2026-05-05 00:36 | 40.09721 | 32.96700 | 3569 ft | 158 kts | 36° |
| 2026-05-05 00:36 | 40.10608 | 32.97549 | 3375 ft | 158 kts | 35° |
| 2026-05-05 00:36 | 40.11209 | 32.98122 | 3213 ft | 158 kts | 37° |